sensor_id;sensor_type;location;lat;lon;timestamp;P1;durP1;ratioP1;P2;durP2;ratioP2
11616;SDS011;5864;52.998;9.068;2023-05-07T00:02:13;17.50;;;14.13;;
11616;SDS011;5864;52.998;9.068;2023-05-07T00:04:59;17.27;;;14.10;;
11616;SDS011;5864;52.998;9.068;2023-05-07T00:07:46;17.67;;;13.93;;
11616;SDS011;5864;52.998;9.068;2023-05-07T00:10:33;17.57;;;14.10;;
11616;SDS011;5864;52.998;9.068;2023-05-07T00:13:19;18.63;;;14.67;;
11616;SDS011;5864;52.998;9.068;2023-05-07T00:16:04;18.47;;;14.37;;
11616;SDS011;5864;52.998;9.068;2023-05-07T00:18:51;19.57;;;15.17;;
11616;SDS011;5864;52.998;9.068;2023-05-07T00:21:37;20.97;;;15.00;;
11616;SDS011;5864;52.998;9.068;2023-05-07T00:24:23;20.60;;;15.27;;
11616;SDS011;5864;52.998;9.068;2023-05-07T00:27:10;18.17;;;14.90;;
11616;SDS011;5864;52.998;9.068;2023-05-07T00:29:56;19.83;;;14.60;;
11616;SDS011;5864;52.998;9.068;2023-05-07T00:32:41;19.97;;;15.50;;
11616;SDS011;5864;52.998;9.068;2023-05-07T00:35:29;19.47;;;13.73;;
11616;SDS011;5864;52.998;9.068;2023-05-07T00:38:14;18.50;;;14.17;;
11616;SDS011;5864;52.998;9.068;2023-05-07T00:41:00;18.93;;;14.40;;
11616;SDS011;5864;52.998;9.068;2023-05-07T00:43:48;17.83;;;13.47;;
11616;SDS011;5864;52.998;9.068;2023-05-07T00:46:35;18.73;;;13.33;;
11616;SDS011;5864;52.998;9.068;2023-05-07T00:49:21;20.63;;;15.77;;
11616;SDS011;5864;52.998;9.068;2023-05-07T00:52:07;16.37;;;13.67;;
11616;SDS011;5864;52.998;9.068;2023-05-07T00:54:53;18.60;;;14.07;;
11616;SDS011;5864;52.998;9.068;2023-05-07T00:57:40;18.57;;;14.17;;
11616;SDS011;5864;52.998;9.068;2023-05-07T01:00:27;19.20;;;13.90;;
11616;SDS011;5864;52.998;9.068;2023-05-07T01:03:14;16.97;;;12.87;;
11616;SDS011;5864;52.998;9.068;2023-05-07T01:05:59;17.23;;;13.90;;
11616;SDS011;5864;52.998;9.068;2023-05-07T01:08:46;19.00;;;14.27;;
11616;SDS011;5864;52.998;9.068;2023-05-07T01:11:34;17.43;;;13.50;;
11616;SDS011;5864;52.998;9.068;2023-05-07T01:14:19;16.70;;;13.10;;
11616;SDS011;5864;52.998;9.068;2023-05-07T01:17:07;16.87;;;13.47;;
11616;SDS011;5864;52.998;9.068;2023-05-07T01:19:53;19.97;;;13.60;;
11616;SDS011;5864;52.998;9.068;2023-05-07T01:22:40;18.93;;;13.63;;
11616;SDS011;5864;52.998;9.068;2023-05-07T01:25:27;16.60;;;13.47;;
11616;SDS011;5864;52.998;9.068;2023-05-07T01:28:14;16.50;;;12.23;;
11616;SDS011;5864;52.998;9.068;2023-05-07T01:31:00;18.33;;;13.17;;
11616;SDS011;5864;52.998;9.068;2023-05-07T01:33:48;19.73;;;13.30;;
11616;SDS011;5864;52.998;9.068;2023-05-07T01:36:35;17.70;;;13.13;;
11616;SDS011;5864;52.998;9.068;2023-05-07T01:39:25;18.40;;;13.10;;
11616;SDS011;5864;52.998;9.068;2023-05-07T01:42:13;20.67;;;13.47;;
11616;SDS011;5864;52.998;9.068;2023-05-07T01:44:59;18.77;;;13.57;;
11616;SDS011;5864;52.998;9.068;2023-05-07T01:47:45;21.17;;;14.13;;
11616;SDS011;5864;52.998;9.068;2023-05-07T01:50:31;19.17;;;13.33;;
11616;SDS011;5864;52.998;9.068;2023-05-07T01:53:18;21.20;;;14.33;;
11616;SDS011;5864;52.998;9.068;2023-05-07T01:56:05;18.33;;;13.97;;
11616;SDS011;5864;52.998;9.068;2023-05-07T01:58:51;20.77;;;13.80;;
11616;SDS011;5864;52.998;9.068;2023-05-07T02:01:36;21.20;;;14.03;;
11616;SDS011;5864;52.998;9.068;2023-05-07T02:04:22;19.63;;;14.20;;
11616;SDS011;5864;52.998;9.068;2023-05-07T02:07:09;20.90;;;13.87;;
11616;SDS011;5864;52.998;9.068;2023-05-07T02:09:54;17.93;;;12.93;;
11616;SDS011;5864;52.998;9.068;2023-05-07T02:12:42;20.80;;;14.00;;
11616;SDS011;5864;52.998;9.068;2023-05-07T02:15:28;19.77;;;14.07;;
11616;SDS011;5864;52.998;9.068;2023-05-07T02:18:13;18.00;;;13.20;;
11616;SDS011;5864;52.998;9.068;2023-05-07T02:21:01;19.77;;;13.20;;
11616;SDS011;5864;52.998;9.068;2023-05-07T02:23:46;19.63;;;13.47;;
11616;SDS011;5864;52.998;9.068;2023-05-07T02:26:32;19.37;;;13.73;;
11616;SDS011;5864;52.998;9.068;2023-05-07T02:29:18;19.33;;;12.37;;
11616;SDS011;5864;52.998;9.068;2023-05-07T02:32:04;18.87;;;13.47;;
11616;SDS011;5864;52.998;9.068;2023-05-07T02:34:50;18.37;;;12.40;;
11616;SDS011;5864;52.998;9.068;2023-05-07T02:37:36;16.53;;;12.77;;
11616;SDS011;5864;52.998;9.068;2023-05-07T02:40:22;18.43;;;13.83;;
11616;SDS011;5864;52.998;9.068;2023-05-07T02:43:08;18.73;;;13.83;;
11616;SDS011;5864;52.998;9.068;2023-05-07T02:46:01;18.10;;;13.10;;
11616;SDS011;5864;52.998;9.068;2023-05-07T02:48:47;18.00;;;13.30;;
11616;SDS011;5864;52.998;9.068;2023-05-07T02:51:33;18.90;;;14.10;;
11616;SDS011;5864;52.998;9.068;2023-05-07T02:54:19;17.10;;;12.57;;
11616;SDS011;5864;52.998;9.068;2023-05-07T02:57:04;18.93;;;13.43;;
11616;SDS011;5864;52.998;9.068;2023-05-07T02:59:50;17.70;;;13.00;;
11616;SDS011;5864;52.998;9.068;2023-05-07T03:02:37;17.07;;;12.87;;
11616;SDS011;5864;52.998;9.068;2023-05-07T03:05:22;18.30;;;12.93;;
11616;SDS011;5864;52.998;9.068;2023-05-07T03:08:08;17.07;;;12.43;;
11616;SDS011;5864;52.998;9.068;2023-05-07T03:10:54;19.70;;;13.80;;
11616;SDS011;5864;52.998;9.068;2023-05-07T03:13:41;18.23;;;13.30;;
11616;SDS011;5864;52.998;9.068;2023-05-07T03:16:27;18.50;;;12.50;;
11616;SDS011;5864;52.998;9.068;2023-05-07T03:19:13;18.43;;;13.00;;
11616;SDS011;5864;52.998;9.068;2023-05-07T03:21:59;17.30;;;13.03;;
11616;SDS011;5864;52.998;9.068;2023-05-07T03:24:45;18.07;;;12.53;;
11616;SDS011;5864;52.998;9.068;2023-05-07T03:27:30;17.33;;;12.00;;
11616;SDS011;5864;52.998;9.068;2023-05-07T03:30:16;18.00;;;13.00;;
11616;SDS011;5864;52.998;9.068;2023-05-07T03:33:01;19.43;;;12.60;;
11616;SDS011;5864;52.998;9.068;2023-05-07T03:35:49;20.50;;;12.97;;
11616;SDS011;5864;52.998;9.068;2023-05-07T03:38:35;17.03;;;11.93;;
11616;SDS011;5864;52.998;9.068;2023-05-07T03:41:21;16.33;;;11.50;;
11616;SDS011;5864;52.998;9.068;2023-05-07T03:44:06;15.83;;;11.57;;
11616;SDS011;5864;52.998;9.068;2023-05-07T03:46:53;15.57;;;12.03;;
11616;SDS011;5864;52.998;9.068;2023-05-07T03:49:38;14.60;;;11.80;;
11616;SDS011;5864;52.998;9.068;2023-05-07T03:52:26;15.80;;;11.30;;
11616;SDS011;5864;52.998;9.068;2023-05-07T03:55:12;15.40;;;11.20;;
11616;SDS011;5864;52.998;9.068;2023-05-07T03:57:58;16.80;;;11.43;;
11616;SDS011;5864;52.998;9.068;2023-05-07T04:00:43;20.23;;;12.77;;
11616;SDS011;5864;52.998;9.068;2023-05-07T04:03:30;14.70;;;11.27;;
11616;SDS011;5864;52.998;9.068;2023-05-07T04:06:15;15.93;;;11.50;;
11616;SDS011;5864;52.998;9.068;2023-05-07T04:09:02;14.07;;;11.23;;
11616;SDS011;5864;52.998;9.068;2023-05-07T04:11:47;16.63;;;11.60;;
11616;SDS011;5864;52.998;9.068;2023-05-07T04:14:34;14.83;;;11.30;;
11616;SDS011;5864;52.998;9.068;2023-05-07T04:17:19;17.10;;;12.30;;
11616;SDS011;5864;52.998;9.068;2023-05-07T04:20:05;15.77;;;11.13;;
11616;SDS011;5864;52.998;9.068;2023-05-07T04:22:55;18.40;;;12.07;;
11616;SDS011;5864;52.998;9.068;2023-05-07T04:25:42;17.37;;;12.97;;
11616;SDS011;5864;52.998;9.068;2023-05-07T04:28:28;17.23;;;12.07;;
11616;SDS011;5864;52.998;9.068;2023-05-07T04:31:13;15.57;;;12.20;;
11616;SDS011;5864;52.998;9.068;2023-05-07T04:34:00;19.13;;;11.80;;
11616;SDS011;5864;52.998;9.068;2023-05-07T04:36:45;15.40;;;12.00;;
11616;SDS011;5864;52.998;9.068;2023-05-07T04:39:32;15.43;;;11.70;;
11616;SDS011;5864;52.998;9.068;2023-05-07T04:42:20;15.20;;;11.10;;
11616;SDS011;5864;52.998;9.068;2023-05-07T04:45:06;15.37;;;11.27;;
11616;SDS011;5864;52.998;9.068;2023-05-07T04:47:53;15.57;;;10.57;;
11616;SDS011;5864;52.998;9.068;2023-05-07T04:50:40;15.47;;;10.33;;
11616;SDS011;5864;52.998;9.068;2023-05-07T04:53:25;14.47;;;10.53;;
11616;SDS011;5864;52.998;9.068;2023-05-07T04:56:11;13.77;;;10.33;;
11616;SDS011;5864;52.998;9.068;2023-05-07T04:58:57;12.40;;;10.23;;
11616;SDS011;5864;52.998;9.068;2023-05-07T05:01:43;15.90;;;10.07;;
11616;SDS011;5864;52.998;9.068;2023-05-07T05:04:28;13.83;;;10.10;;
11616;SDS011;5864;52.998;9.068;2023-05-07T05:07:14;12.90;;;9.60;;
11616;SDS011;5864;52.998;9.068;2023-05-07T05:10:01;12.70;;;10.87;;
11616;SDS011;5864;52.998;9.068;2023-05-07T05:12:47;12.90;;;9.87;;
11616;SDS011;5864;52.998;9.068;2023-05-07T05:15:34;12.67;;;9.80;;
11616;SDS011;5864;52.998;9.068;2023-05-07T05:18:20;11.77;;;9.60;;
11616;SDS011;5864;52.998;9.068;2023-05-07T05:21:06;13.37;;;9.67;;
11616;SDS011;5864;52.998;9.068;2023-05-07T05:23:52;10.17;;;8.47;;
11616;SDS011;5864;52.998;9.068;2023-05-07T05:26:37;12.10;;;9.13;;
11616;SDS011;5864;52.998;9.068;2023-05-07T05:29:23;11.07;;;8.43;;
11616;SDS011;5864;52.998;9.068;2023-05-07T05:32:10;10.63;;;8.67;;
11616;SDS011;5864;52.998;9.068;2023-05-07T05:34:56;11.90;;;9.10;;
11616;SDS011;5864;52.998;9.068;2023-05-07T05:37:41;10.07;;;8.57;;
11616;SDS011;5864;52.998;9.068;2023-05-07T05:40:27;11.97;;;9.07;;
11616;SDS011;5864;52.998;9.068;2023-05-07T05:43:13;10.07;;;8.73;;
11616;SDS011;5864;52.998;9.068;2023-05-07T05:45:58;10.50;;;8.87;;
11616;SDS011;5864;52.998;9.068;2023-05-07T05:48:45;11.07;;;9.00;;
11616;SDS011;5864;52.998;9.068;2023-05-07T05:51:32;9.60;;;8.20;;
11616;SDS011;5864;52.998;9.068;2023-05-07T05:54:17;9.07;;;8.17;;
11616;SDS011;5864;52.998;9.068;2023-05-07T05:57:03;10.27;;;8.27;;
11616;SDS011;5864;52.998;9.068;2023-05-07T05:59:49;10.23;;;8.07;;
11616;SDS011;5864;52.998;9.068;2023-05-07T06:02:35;10.03;;;8.20;;
11616;SDS011;5864;52.998;9.068;2023-05-07T06:05:22;9.13;;;8.07;;
11616;SDS011;5864;52.998;9.068;2023-05-07T06:08:08;10.23;;;8.30;;
11616;SDS011;5864;52.998;9.068;2023-05-07T06:10:53;8.90;;;8.00;;
11616;SDS011;5864;52.998;9.068;2023-05-07T06:13:40;9.90;;;8.20;;
11616;SDS011;5864;52.998;9.068;2023-05-07T06:16:25;9.80;;;8.37;;
11616;SDS011;5864;52.998;9.068;2023-05-07T06:19:12;9.67;;;7.67;;
11616;SDS011;5864;52.998;9.068;2023-05-07T06:21:58;9.40;;;7.57;;
11616;SDS011;5864;52.998;9.068;2023-05-07T06:24:44;8.80;;;7.40;;
11616;SDS011;5864;52.998;9.068;2023-05-07T06:27:31;8.23;;;7.33;;
11616;SDS011;5864;52.998;9.068;2023-05-07T06:30:16;9.03;;;7.53;;
11616;SDS011;5864;52.998;9.068;2023-05-07T06:33:02;8.60;;;7.37;;
11616;SDS011;5864;52.998;9.068;2023-05-07T06:35:47;8.70;;;7.53;;
11616;SDS011;5864;52.998;9.068;2023-05-07T06:38:35;10.40;;;8.20;;
11616;SDS011;5864;52.998;9.068;2023-05-07T06:41:21;8.10;;;7.17;;
11616;SDS011;5864;52.998;9.068;2023-05-07T06:44:06;8.80;;;7.50;;
11616;SDS011;5864;52.998;9.068;2023-05-07T06:46:53;8.97;;;7.83;;
11616;SDS011;5864;52.998;9.068;2023-05-07T06:49:38;9.73;;;7.80;;
11616;SDS011;5864;52.998;9.068;2023-05-07T06:52:25;9.90;;;7.70;;
11616;SDS011;5864;52.998;9.068;2023-05-07T06:55:12;13.30;;;9.17;;
11616;SDS011;5864;52.998;9.068;2023-05-07T06:57:57;9.87;;;8.67;;
11616;SDS011;5864;52.998;9.068;2023-05-07T07:00:45;12.40;;;9.43;;
11616;SDS011;5864;52.998;9.068;2023-05-07T07:03:30;9.60;;;8.30;;
11616;SDS011;5864;52.998;9.068;2023-05-07T07:06:17;10.97;;;8.57;;
11616;SDS011;5864;52.998;9.068;2023-05-07T07:09:02;9.63;;;8.30;;
11616;SDS011;5864;52.998;9.068;2023-05-07T07:11:49;10.00;;;8.33;;
11616;SDS011;5864;52.998;9.068;2023-05-07T07:14:34;10.10;;;8.17;;
11616;SDS011;5864;52.998;9.068;2023-05-07T07:17:20;9.33;;;7.83;;
11616;SDS011;5864;52.998;9.068;2023-05-07T07:20:06;10.40;;;7.63;;
11616;SDS011;5864;52.998;9.068;2023-05-07T07:22:52;10.30;;;8.43;;
11616;SDS011;5864;52.998;9.068;2023-05-07T07:25:39;9.07;;;7.23;;
11616;SDS011;5864;52.998;9.068;2023-05-07T07:28:25;9.90;;;7.90;;
11616;SDS011;5864;52.998;9.068;2023-05-07T07:31:11;8.40;;;7.27;;
11616;SDS011;5864;52.998;9.068;2023-05-07T07:33:56;8.50;;;6.90;;
11616;SDS011;5864;52.998;9.068;2023-05-07T07:36:42;8.40;;;6.80;;
11616;SDS011;5864;52.998;9.068;2023-05-07T07:39:28;7.30;;;6.50;;
11616;SDS011;5864;52.998;9.068;2023-05-07T07:42:14;7.63;;;6.63;;
11616;SDS011;5864;52.998;9.068;2023-05-07T07:45:00;7.90;;;6.43;;
11616;SDS011;5864;52.998;9.068;2023-05-07T07:47:47;7.30;;;6.30;;
11616;SDS011;5864;52.998;9.068;2023-05-07T07:50:32;7.93;;;6.40;;
11616;SDS011;5864;52.998;9.068;2023-05-07T07:53:18;7.13;;;6.33;;
11616;SDS011;5864;52.998;9.068;2023-05-07T07:56:05;8.33;;;6.53;;
11616;SDS011;5864;52.998;9.068;2023-05-07T07:58:50;7.30;;;6.10;;
11616;SDS011;5864;52.998;9.068;2023-05-07T08:01:37;7.40;;;6.70;;
11616;SDS011;5864;52.998;9.068;2023-05-07T08:04:23;7.50;;;5.73;;
11616;SDS011;5864;52.998;9.068;2023-05-07T08:07:09;8.27;;;6.13;;
11616;SDS011;5864;52.998;9.068;2023-05-07T08:09:54;7.70;;;6.47;;
11616;SDS011;5864;52.998;9.068;2023-05-07T08:12:40;6.33;;;5.70;;
11616;SDS011;5864;52.998;9.068;2023-05-07T08:15:25;7.60;;;6.47;;
11616;SDS011;5864;52.998;9.068;2023-05-07T08:18:12;7.50;;;6.70;;
11616;SDS011;5864;52.998;9.068;2023-05-07T08:20:58;7.93;;;6.50;;
11616;SDS011;5864;52.998;9.068;2023-05-07T08:23:44;9.37;;;6.87;;
11616;SDS011;5864;52.998;9.068;2023-05-07T08:26:30;8.40;;;7.03;;
11616;SDS011;5864;52.998;9.068;2023-05-07T08:29:15;8.10;;;7.30;;
11616;SDS011;5864;52.998;9.068;2023-05-07T08:32:01;7.63;;;6.87;;
11616;SDS011;5864;52.998;9.068;2023-05-07T08:34:48;7.83;;;6.27;;
11616;SDS011;5864;52.998;9.068;2023-05-07T08:37:33;8.27;;;6.77;;
11616;SDS011;5864;52.998;9.068;2023-05-07T08:40:19;7.97;;;6.50;;
11616;SDS011;5864;52.998;9.068;2023-05-07T08:43:08;7.87;;;6.43;;
11616;SDS011;5864;52.998;9.068;2023-05-07T08:45:56;8.03;;;6.40;;
11616;SDS011;5864;52.998;9.068;2023-05-07T08:48:47;7.07;;;6.37;;
11616;SDS011;5864;52.998;9.068;2023-05-07T08:51:35;7.27;;;6.57;;
11616;SDS011;5864;52.998;9.068;2023-05-07T08:54:22;7.67;;;6.73;;
11616;SDS011;5864;52.998;9.068;2023-05-07T08:57:08;8.03;;;6.97;;
11616;SDS011;5864;52.998;9.068;2023-05-07T08:59:53;8.37;;;7.03;;
11616;SDS011;5864;52.998;9.068;2023-05-07T09:02:39;8.93;;;7.43;;
11616;SDS011;5864;52.998;9.068;2023-05-07T09:05:25;9.03;;;7.03;;
11616;SDS011;5864;52.998;9.068;2023-05-07T09:08:14;8.47;;;6.97;;
11616;SDS011;5864;52.998;9.068;2023-05-07T09:10:59;8.93;;;7.13;;
11616;SDS011;5864;52.998;9.068;2023-05-07T09:13:45;7.70;;;6.73;;
11616;SDS011;5864;52.998;9.068;2023-05-07T09:16:31;8.67;;;7.10;;
11616;SDS011;5864;52.998;9.068;2023-05-07T09:19:16;9.57;;;7.37;;
11616;SDS011;5864;52.998;9.068;2023-05-07T09:22:08;10.73;;;7.57;;
11616;SDS011;5864;52.998;9.068;2023-05-07T09:24:55;11.60;;;8.10;;
11616;SDS011;5864;52.998;9.068;2023-05-07T09:27:41;10.43;;;8.43;;
11616;SDS011;5864;52.998;9.068;2023-05-07T09:30:27;9.43;;;7.93;;
11616;SDS011;5864;52.998;9.068;2023-05-07T09:33:14;11.07;;;7.83;;
11616;SDS011;5864;52.998;9.068;2023-05-07T09:36:01;9.17;;;7.63;;
11616;SDS011;5864;52.998;9.068;2023-05-07T09:38:48;9.57;;;8.00;;
11616;SDS011;5864;52.998;9.068;2023-05-07T09:41:44;10.47;;;7.37;;
11616;SDS011;5864;52.998;9.068;2023-05-07T09:44:31;9.13;;;8.20;;
11616;SDS011;5864;52.998;9.068;2023-05-07T09:47:18;8.97;;;7.50;;
11616;SDS011;5864;52.998;9.068;2023-05-07T09:50:05;9.57;;;7.87;;
11616;SDS011;5864;52.998;9.068;2023-05-07T09:52:55;10.43;;;7.50;;
11616;SDS011;5864;52.998;9.068;2023-05-07T09:55:42;10.00;;;8.37;;
11616;SDS011;5864;52.998;9.068;2023-05-07T09:58:29;9.77;;;7.57;;
11616;SDS011;5864;52.998;9.068;2023-05-07T10:01:16;9.70;;;7.97;;
11616;SDS011;5864;52.998;9.068;2023-05-07T10:04:05;8.70;;;7.00;;
11616;SDS011;5864;52.998;9.068;2023-05-07T10:06:52;10.23;;;8.27;;
11616;SDS011;5864;52.998;9.068;2023-05-07T10:09:39;9.23;;;7.87;;
11616;SDS011;5864;52.998;9.068;2023-05-07T10:12:27;11.07;;;8.67;;
11616;SDS011;5864;52.998;9.068;2023-05-07T10:15:15;9.20;;;7.50;;
11616;SDS011;5864;52.998;9.068;2023-05-07T10:18:01;9.77;;;8.00;;
11616;SDS011;5864;52.998;9.068;2023-05-07T10:20:48;8.57;;;7.23;;
11616;SDS011;5864;52.998;9.068;2023-05-07T10:23:36;9.40;;;7.97;;
11616;SDS011;5864;52.998;9.068;2023-05-07T10:26:23;9.63;;;8.17;;
11616;SDS011;5864;52.998;9.068;2023-05-07T10:29:14;8.03;;;7.17;;
11616;SDS011;5864;52.998;9.068;2023-05-07T10:32:13;9.27;;;7.67;;
11616;SDS011;5864;52.998;9.068;2023-05-07T10:35:10;9.13;;;7.63;;
11616;SDS011;5864;52.998;9.068;2023-05-07T10:38:01;8.30;;;7.50;;
11616;SDS011;5864;52.998;9.068;2023-05-07T10:40:47;8.43;;;7.60;;
11616;SDS011;5864;52.998;9.068;2023-05-07T10:43:42;8.67;;;7.77;;
11616;SDS011;5864;52.998;9.068;2023-05-07T10:46:28;8.67;;;7.80;;
11616;SDS011;5864;52.998;9.068;2023-05-07T10:49:15;9.77;;;8.27;;
11616;SDS011;5864;52.998;9.068;2023-05-07T10:52:14;8.80;;;7.90;;
11616;SDS011;5864;52.998;9.068;2023-05-07T10:55:19;9.63;;;7.77;;
11616;SDS011;5864;52.998;9.068;2023-05-07T10:58:25;7.73;;;6.97;;
11616;SDS011;5864;52.998;9.068;2023-05-07T11:01:11;7.73;;;6.93;;
11616;SDS011;5864;52.998;9.068;2023-05-07T11:04:12;8.43;;;7.57;;
11616;SDS011;5864;52.998;9.068;2023-05-07T11:10:10;8.20;;;6.97;;
11616;SDS011;5864;52.998;9.068;2023-05-07T11:12:57;7.30;;;6.47;;
11616;SDS011;5864;52.998;9.068;2023-05-07T11:15:43;7.37;;;6.67;;
11616;SDS011;5864;52.998;9.068;2023-05-07T11:18:39;7.43;;;6.60;;
11616;SDS011;5864;52.998;9.068;2023-05-07T11:21:32;8.23;;;6.90;;
11616;SDS011;5864;52.998;9.068;2023-05-07T11:24:20;9.17;;;6.20;;
11616;SDS011;5864;52.998;9.068;2023-05-07T11:27:06;6.57;;;5.80;;
11616;SDS011;5864;52.998;9.068;2023-05-07T11:29:52;7.47;;;6.27;;
11616;SDS011;5864;52.998;9.068;2023-05-07T11:32:38;7.10;;;6.40;;
11616;SDS011;5864;52.998;9.068;2023-05-07T11:35:24;6.90;;;6.20;;
11616;SDS011;5864;52.998;9.068;2023-05-07T11:38:10;7.30;;;6.60;;
11616;SDS011;5864;52.998;9.068;2023-05-07T11:40:58;6.97;;;6.27;;
11616;SDS011;5864;52.998;9.068;2023-05-07T11:43:56;7.03;;;6.33;;
11616;SDS011;5864;52.998;9.068;2023-05-07T11:46:43;6.50;;;5.90;;
11616;SDS011;5864;52.998;9.068;2023-05-07T11:49:29;7.00;;;6.37;;
11616;SDS011;5864;52.998;9.068;2023-05-07T11:52:15;6.67;;;6.03;;
11616;SDS011;5864;52.998;9.068;2023-05-07T11:55:01;7.00;;;6.30;;
11616;SDS011;5864;52.998;9.068;2023-05-07T11:57:49;6.80;;;6.10;;
11616;SDS011;5864;52.998;9.068;2023-05-07T12:00:35;6.67;;;6.07;;
11616;SDS011;5864;52.998;9.068;2023-05-07T12:03:21;6.37;;;5.73;;
11616;SDS011;5864;52.998;9.068;2023-05-07T12:06:06;6.43;;;5.73;;
11616;SDS011;5864;52.998;9.068;2023-05-07T12:08:53;6.97;;;6.27;;
11616;SDS011;5864;52.998;9.068;2023-05-07T12:11:38;7.10;;;5.87;;
11616;SDS011;5864;52.998;9.068;2023-05-07T12:14:28;5.77;;;5.23;;
11616;SDS011;5864;52.998;9.068;2023-05-07T12:17:15;6.40;;;5.70;;
11616;SDS011;5864;52.998;9.068;2023-05-07T12:20:01;5.57;;;5.07;;
11616;SDS011;5864;52.998;9.068;2023-05-07T12:22:47;6.40;;;5.70;;
11616;SDS011;5864;52.998;9.068;2023-05-07T12:25:36;6.00;;;5.43;;
11616;SDS011;5864;52.998;9.068;2023-05-07T12:28:23;5.73;;;5.20;;
11616;SDS011;5864;52.998;9.068;2023-05-07T12:31:10;5.37;;;4.90;;
11616;SDS011;5864;52.998;9.068;2023-05-07T12:33:56;5.93;;;5.07;;
11616;SDS011;5864;52.998;9.068;2023-05-07T12:36:41;6.07;;;5.40;;
11616;SDS011;5864;52.998;9.068;2023-05-07T12:39:27;5.07;;;4.57;;
11616;SDS011;5864;52.998;9.068;2023-05-07T12:42:14;5.50;;;5.00;;
11616;SDS011;5864;52.998;9.068;2023-05-07T12:45:00;5.40;;;4.90;;
11616;SDS011;5864;52.998;9.068;2023-05-07T12:47:54;5.43;;;4.60;;
11616;SDS011;5864;52.998;9.068;2023-05-07T12:50:40;4.93;;;4.53;;
11616;SDS011;5864;52.998;9.068;2023-05-07T12:53:27;5.87;;;5.27;;
11616;SDS011;5864;52.998;9.068;2023-05-07T12:56:15;4.93;;;4.53;;
11616;SDS011;5864;52.998;9.068;2023-05-07T12:59:00;5.40;;;4.90;;
11616;SDS011;5864;52.998;9.068;2023-05-07T13:01:47;6.10;;;4.97;;
11616;SDS011;5864;52.998;9.068;2023-05-07T13:04:34;5.20;;;4.70;;
11616;SDS011;5864;52.998;9.068;2023-05-07T13:07:20;5.30;;;4.80;;
11616;SDS011;5864;52.998;9.068;2023-05-07T13:10:10;5.10;;;4.53;;
11616;SDS011;5864;52.998;9.068;2023-05-07T13:12:55;5.33;;;4.57;;
11616;SDS011;5864;52.998;9.068;2023-05-07T13:15:40;5.20;;;4.60;;
11616;SDS011;5864;52.998;9.068;2023-05-07T13:18:26;5.97;;;5.13;;
11616;SDS011;5864;52.998;9.068;2023-05-07T13:21:16;5.27;;;4.77;;
11616;SDS011;5864;52.998;9.068;2023-05-07T13:24:02;5.03;;;4.50;;
11616;SDS011;5864;52.998;9.068;2023-05-07T13:26:48;5.90;;;4.80;;
11616;SDS011;5864;52.998;9.068;2023-05-07T13:29:33;5.07;;;4.63;;
11616;SDS011;5864;52.998;9.068;2023-05-07T13:32:19;4.83;;;4.43;;
11616;SDS011;5864;52.998;9.068;2023-05-07T13:35:05;5.90;;;5.27;;
11616;SDS011;5864;52.998;9.068;2023-05-07T13:37:53;5.20;;;4.77;;
11616;SDS011;5864;52.998;9.068;2023-05-07T13:40:40;4.87;;;4.37;;
11616;SDS011;5864;52.998;9.068;2023-05-07T13:43:25;5.73;;;4.97;;
11616;SDS011;5864;52.998;9.068;2023-05-07T13:46:11;5.93;;;5.43;;
11616;SDS011;5864;52.998;9.068;2023-05-07T13:48:56;8.27;;;5.13;;
11616;SDS011;5864;52.998;9.068;2023-05-07T13:51:42;6.07;;;5.50;;
11616;SDS011;5864;52.998;9.068;2023-05-07T13:54:29;7.10;;;5.33;;
11616;SDS011;5864;52.998;9.068;2023-05-07T13:57:15;5.43;;;4.93;;
11616;SDS011;5864;52.998;9.068;2023-05-07T14:00:01;6.47;;;5.77;;
11616;SDS011;5864;52.998;9.068;2023-05-07T14:02:47;5.93;;;5.43;;
11616;SDS011;5864;52.998;9.068;2023-05-07T14:05:32;5.77;;;5.27;;
11616;SDS011;5864;52.998;9.068;2023-05-07T14:08:18;5.27;;;4.87;;
11616;SDS011;5864;52.998;9.068;2023-05-07T14:11:05;6.10;;;5.50;;
11616;SDS011;5864;52.998;9.068;2023-05-07T14:13:51;6.00;;;5.40;;
11616;SDS011;5864;52.998;9.068;2023-05-07T14:16:36;5.93;;;5.17;;
11616;SDS011;5864;52.998;9.068;2023-05-07T14:19:22;6.00;;;5.40;;
11616;SDS011;5864;52.998;9.068;2023-05-07T14:22:07;5.83;;;5.33;;
11616;SDS011;5864;52.998;9.068;2023-05-07T14:24:53;5.57;;;5.00;;
11616;SDS011;5864;52.998;9.068;2023-05-07T14:27:40;5.50;;;5.00;;
11616;SDS011;5864;52.998;9.068;2023-05-07T14:30:25;6.10;;;4.90;;
11616;SDS011;5864;52.998;9.068;2023-05-07T14:33:12;6.00;;;5.40;;
11616;SDS011;5864;52.998;9.068;2023-05-07T14:35:57;6.57;;;5.20;;
11616;SDS011;5864;52.998;9.068;2023-05-07T14:38:43;7.33;;;4.90;;
11616;SDS011;5864;52.998;9.068;2023-05-07T14:41:28;6.90;;;4.87;;
11616;SDS011;5864;52.998;9.068;2023-05-07T14:44:16;5.27;;;4.77;;
11616;SDS011;5864;52.998;9.068;2023-05-07T14:47:02;5.57;;;4.93;;
11616;SDS011;5864;52.998;9.068;2023-05-07T14:49:48;6.57;;;5.17;;
11616;SDS011;5864;52.998;9.068;2023-05-07T14:52:34;5.87;;;5.27;;
11616;SDS011;5864;52.998;9.068;2023-05-07T14:55:19;5.90;;;5.23;;
11616;SDS011;5864;52.998;9.068;2023-05-07T14:58:05;6.17;;;5.37;;
11616;SDS011;5864;52.998;9.068;2023-05-07T15:00:52;5.27;;;4.50;;
11616;SDS011;5864;52.998;9.068;2023-05-07T15:03:37;6.40;;;5.70;;
11616;SDS011;5864;52.998;9.068;2023-05-07T15:06:23;5.80;;;5.27;;
11616;SDS011;5864;52.998;9.068;2023-05-07T15:09:10;6.63;;;5.33;;
11616;SDS011;5864;52.998;9.068;2023-05-07T15:11:56;7.30;;;5.83;;
11616;SDS011;5864;52.998;9.068;2023-05-07T15:14:41;5.80;;;5.30;;
11616;SDS011;5864;52.998;9.068;2023-05-07T15:17:28;5.70;;;5.20;;
11616;SDS011;5864;52.998;9.068;2023-05-07T15:20:14;6.07;;;5.50;;
11616;SDS011;5864;52.998;9.068;2023-05-07T15:23:00;6.17;;;5.20;;
11616;SDS011;5864;52.998;9.068;2023-05-07T15:25:46;5.50;;;5.00;;
11616;SDS011;5864;52.998;9.068;2023-05-07T15:28:32;5.90;;;5.40;;
11616;SDS011;5864;52.998;9.068;2023-05-07T15:31:17;5.80;;;5.30;;
11616;SDS011;5864;52.998;9.068;2023-05-07T15:34:04;6.03;;;5.40;;
11616;SDS011;5864;52.998;9.068;2023-05-07T15:36:49;6.40;;;5.80;;
11616;SDS011;5864;52.998;9.068;2023-05-07T15:39:36;6.17;;;5.33;;
11616;SDS011;5864;52.998;9.068;2023-05-07T15:42:21;8.03;;;5.37;;
11616;SDS011;5864;52.998;9.068;2023-05-07T15:45:08;6.37;;;5.03;;
11616;SDS011;5864;52.998;9.068;2023-05-07T15:47:54;5.23;;;4.80;;
11616;SDS011;5864;52.998;9.068;2023-05-07T15:50:41;6.20;;;5.10;;
11616;SDS011;5864;52.998;9.068;2023-05-07T15:53:26;5.23;;;4.70;;
11616;SDS011;5864;52.998;9.068;2023-05-07T15:56:12;7.50;;;5.03;;
11616;SDS011;5864;52.998;9.068;2023-05-07T15:58:58;5.63;;;5.03;;
11616;SDS011;5864;52.998;9.068;2023-05-07T16:01:43;6.17;;;4.53;;
11616;SDS011;5864;52.998;9.068;2023-05-07T16:04:28;6.07;;;4.90;;
11616;SDS011;5864;52.998;9.068;2023-05-07T16:07:15;4.77;;;4.37;;
11616;SDS011;5864;52.998;9.068;2023-05-07T16:10:02;8.93;;;5.47;;
11616;SDS011;5864;52.998;9.068;2023-05-07T16:12:48;6.67;;;5.23;;
11616;SDS011;5864;52.998;9.068;2023-05-07T16:15:33;5.13;;;4.63;;
11616;SDS011;5864;52.998;9.068;2023-05-07T16:18:20;5.00;;;4.50;;
11616;SDS011;5864;52.998;9.068;2023-05-07T16:21:05;5.17;;;4.63;;
11616;SDS011;5864;52.998;9.068;2023-05-07T16:23:52;6.63;;;4.90;;
11616;SDS011;5864;52.998;9.068;2023-05-07T16:26:38;7.53;;;4.87;;
11616;SDS011;5864;52.998;9.068;2023-05-07T16:29:24;5.70;;;5.00;;
11616;SDS011;5864;52.998;9.068;2023-05-07T16:32:10;5.73;;;5.13;;
11616;SDS011;5864;52.998;9.068;2023-05-07T16:34:55;6.17;;;4.63;;
11616;SDS011;5864;52.998;9.068;2023-05-07T16:37:41;5.13;;;4.73;;
11616;SDS011;5864;52.998;9.068;2023-05-07T16:40:28;4.63;;;4.13;;
11616;SDS011;5864;52.998;9.068;2023-05-07T16:43:14;4.87;;;4.37;;
11616;SDS011;5864;52.998;9.068;2023-05-07T16:45:59;6.13;;;4.50;;
11616;SDS011;5864;52.998;9.068;2023-05-07T16:48:45;5.20;;;4.70;;
11616;SDS011;5864;52.998;9.068;2023-05-07T16:51:32;5.00;;;4.47;;